Woodville, Alabama
Current Conditions -  °F | °C
As of 4:15 PM on Thursday 23 Oct 2014 (Local Time) from K4A6 Reporting Station
Clear Clear  
Wind Chill: 68°   Ceiling: Unl
Heat Index: 68°   Visibility: 10mi
Dew Point: 41°   Wind: 3mph
Humidity: 37%   Direction: 20°NNE
Pressure: 30.07"   Gusts: NA
Location:  34.63°N, 86.27°W
Report Text: K4A6 232115Z AUTO 02003KT 10SM CLR 20/05 A3007 RMK AO2
Loading
Personal Weather Stations






























Interactive Weather Map New forecast layout! Learn more

10-Day Weather Forecast

Advertisements
Track Severe Weather on mobile